Wyaconda, MO

9:12 AM CDT on May 27, 2017 (GMT -0500)
KIADONNE3 | | Change Station
Active Advisory: Flood Warning

Elev 700 ft 40.63 °N, 91.60 °W | Updated 5 seconds ago

Mostly Cloudy
Mostly Cloudy
61.5 °F
Feels Like 61.5 °F
N
1.3
Wind Variable Wind from East
Gusts 4.9 mph

Today
High -- | Low -- °F
--% Chance of Precip.
Yesterday
High -- | Low -- °F
Precip. -- in
Pressure 29.90 in
Visibility 1.2 miles
Clouds Overcast 300 ft
Dew Point 51 °F
Humidity 68%
Rainfall 0.00 in
Snow Depth Not available.
5:42 AM 8:28 PM
Waxing Crescent, 5% visible
METAR KEOK 271355Z AUTO 09007KT 1 1/4SM BR OVC003 16/16 A2990 RMK AO2
Pressure 29.90 in
Visibility 1.2 miles
Clouds Overcast 300 ft
Dew Point 51 °F
Humidity 68%
Rainfall 0.00 in
Snow Depth Not available.
5:42 AM 8:28 PM
Waxing Crescent, 5% visible
METAR KEOK 271355Z AUTO 09007KT 1 1/4SM BR OVC003 16/16 A2990 RMK AO2

Get Your Daily Forecast Email!

Thanks for signing up!

Be on the lookout for a verification email in your inbox.

You'll start receiving severe weather alerts in your inbox..

×

10-Day Weather Forecast

Almanac

Astronomy

May. 27, 2017 Rise Set
Actual Time
Civil Twilight
Nautical Twilight
Astronomical Twilight
Moon
Length of Visible Light
Length of Day
Tomorrow will be .
, % of the Moon is Illuminated

Today's Extremes

State Highs State Lows

Community

WunderPhotos

Category 6

Welcome to Category 6. This is the collective home for Weather Underground's featured writeups by Dr. Jeff Masters (right), Bob Henson (left), Chris Burt, and other regular contributors.

Nearby

Air Quality

  Air Quality AQ Index Pollutant
Not available.

Snow Depth

Station Depth Elevation

Earthquake Activity

City Distance Mag. Time & Date
Minimum magnitude displayed is 2.5.

Coastal Water Temperatures

Place Temperature

Stations

Nearby Weather Stations

Station Location Temp. Windchill Dew Point Humidity Wind Precip. Elev Updated Type
                   

Watches & Warnings

Flood Warning
Issued: 5:08 AM CDT May. 27, 2017 – National Weather Service

... Flood Warning remains in effect until further notice...

The Flood Warning continues for
the Mississippi River at Gregory Landing.
* Until further notice.
* At 4:30 am Saturday the stage was 14.6 feet... and rising.
* Flood stage is 15.0 feet.
* No flooding is occurring and minor flooding is forecast.
* Forecast... rise above flood stage Sunday morning... and continue
rising to 17.1 feet on June 3rd.
* Impact... at 17.0 feet... water affects the Road north of the grain
elevator in Gregory Landing.


Lat... Lon 4022 9154 4039 9149 4038 9134 4029 9143
      4022 9142


Nichols